Time;durP1;ratioP1;P1;durP2;ratioP2;P2;SDS_P1;SDS_P2;PMS_P1;PMS_P2;Temp;Humidity;BMP_temperature;BMP_pressure;BME280_temperature;BME280_humidity;BME280_pressure;Samples;Min_cycle;Max_cycle;Signal;HPM_P1;HPM_P2
2024/02/11 00:01:08;;;;;;;26.27;13.98;;;11.00;99.90;;;;;;4986703;28;20116;-74
2024/02/11 00:03:37;;;;;;;26.67;14.25;;;11.00;99.90;;;;;;4985895;28;20061;-74
2024/02/11 00:06:08;;;;;;;26.27;14.15;;;11.00;99.90;;;;;;4987065;28;20089;-74
2024/02/11 00:08:36;;;;;;;28.35;15.90;;;11.00;99.90;;;;;;4986757;28;20038;-74
2024/02/11 00:11:02;;;;;;;30.52;14.65;;;11.00;99.90;;;;;;4986749;28;20034;-74
2024/02/11 00:13:29;;;;;;;29.85;14.57;;;11.00;99.90;;;;;;4986751;28;20073;-74
2024/02/11 00:15:55;;;;;;;24.17;14.63;;;11.00;99.90;;;;;;4965944;28;20671;-74
2024/02/11 00:18:24;;;;;;;28.52;15.07;;;11.00;99.90;;;;;;4981986;28;20036;-74
2024/02/11 00:20:51;;;;;;;27.15;14.38;;;10.90;99.90;;;;;;4986151;28;20027;-74
2024/02/11 00:23:16;;;;;;;29.48;15.93;;;11.00;99.90;;;;;;4986589;28;20089;-74
2024/02/11 00:25:42;;;;;;;27.00;15.43;;;11.00;99.90;;;;;;4983981;28;20039;-74
2024/02/11 00:28:08;;;;;;;27.23;15.70;;;11.10;99.90;;;;;;4984816;28;20034;-74
2024/02/11 00:30:37;;;;;;;31.67;15.35;;;11.10;99.90;;;;;;4982840;28;20034;-74
2024/02/11 00:33:05;;;;;;;31.98;16.83;;;11.10;99.90;;;;;;4985176;28;20030;-74
2024/02/11 00:35:31;;;;;;;37.53;17.67;;;11.10;99.90;;;;;;4980981;28;20133;-74
2024/02/11 00:37:58;;;;;;;31.55;17.25;;;11.00;99.90;;;;;;4979182;28;20034;-74
2024/02/11 00:40:24;;;;;;;30.73;16.80;;;11.00;99.90;;;;;;4980862;28;20768;-74
2024/02/11 00:42:51;;;;;;;31.73;16.70;;;11.00;99.90;;;;;;4984191;28;20038;-74
2024/02/11 00:45:17;;;;;;;34.83;17.63;;;11.00;99.90;;;;;;4985082;28;20037;-74
2024/02/11 00:47:47;;;;;;;30.98;15.80;;;11.10;99.90;;;;;;4983936;28;20041;-74
2024/02/11 00:50:13;;;;;;;36.00;18.77;;;11.00;99.90;;;;;;4983073;28;20405;-74
2024/02/11 00:52:44;;;;;;;31.48;17.02;;;11.00;99.90;;;;;;4984798;28;20030;-74
2024/02/11 00:55:14;;;;;;;33.22;18.75;;;11.10;99.90;;;;;;4984287;28;20030;-74
2024/02/11 00:57:41;;;;;;;37.35;18.10;;;11.20;99.90;;;;;;4984894;28;20030;-74
2024/02/11 01:00:11;;;;;;;33.58;18.30;;;11.20;99.90;;;;;;4984401;28;20114;-74
2024/02/11 01:02:38;;;;;;;31.55;17.52;;;11.20;99.90;;;;;;4984454;28;20520;-74
2024/02/11 01:05:04;;;;;;;38.75;18.85;;;11.30;99.90;;;;;;4984873;28;20053;-75
2024/02/11 01:07:32;;;;;;;33.78;18.35;;;11.30;99.90;;;;;;4984354;28;20059;-75
2024/02/11 01:09:58;;;;;;;29.83;17.90;;;11.30;99.90;;;;;;4984333;28;20038;-75
2024/02/11 01:12:24;;;;;;;35.85;18.73;;;11.20;99.90;;;;;;4984115;28;20101;-74
2024/02/11 01:14:50;;;;;;;35.55;18.67;;;11.20;99.90;;;;;;4984201;28;20565;-74
2024/02/11 01:17:19;;;;;;;37.95;19.67;;;11.30;99.90;;;;;;4984521;28;20705;-74
2024/02/11 01:19:46;;;;;;;37.45;19.70;;;11.30;99.90;;;;;;4983891;28;20449;-75
2024/02/11 01:22:13;;;;;;;33.67;17.50;;;11.20;99.90;;;;;;4984193;28;20041;-74
2024/02/11 01:24:39;;;;;;;39.72;20.05;;;11.10;99.90;;;;;;4980386;28;20449;-75
2024/02/11 01:27:04;;;;;;;35.95;19.40;;;11.20;99.90;;;;;;4984500;28;20110;-75
2024/02/11 01:29:30;;;;;;;36.08;19.88;;;11.30;99.90;;;;;;4984061;28;20030;-75
2024/02/11 01:31:58;;;;;;;31.92;18.25;;;11.20;99.90;;;;;;4983876;28;20042;-75
2024/02/11 01:34:25;;;;;;;42.38;19.60;;;11.20;99.90;;;;;;4982731;28;20120;-74
2024/02/11 01:36:51;;;;;;;44.22;20.90;;;11.20;99.90;;;;;;4983554;28;20039;-74
2024/02/11 01:39:17;;;;;;;35.35;20.63;;;11.20;99.90;;;;;;4983627;28;20030;-75
2024/02/11 01:41:42;;;;;;;40.50;19.73;;;11.30;99.90;;;;;;4983685;28;20065;-75
2024/02/11 01:44:09;;;;;;;42.83;20.25;;;11.30;99.90;;;;;;4983913;28;20112;-75
2024/02/11 01:46:35;;;;;;;35.38;19.60;;;11.20;99.90;;;;;;4984251;28;20026;-75
2024/02/11 01:49:04;;;;;;;42.97;20.42;;;11.30;99.90;;;;;;4978745;28;20720;-74
2024/02/11 01:51:33;;;;;;;44.00;22.92;;;11.40;99.90;;;;;;4982774;28;20038;-74
2024/02/11 01:54:01;;;;;;;43.00;22.02;;;11.30;99.90;;;;;;4983887;28;20121;-74
2024/02/11 01:56:27;;;;;;;40.08;21.08;;;11.30;99.90;;;;;;4983584;28;20588;-75
2024/02/11 01:58:54;;;;;;;39.58;21.13;;;11.20;99.90;;;;;;4984201;28;20148;-74
2024/02/11 02:01:25;;;;;;;43.30;22.30;;;11.20;99.90;;;;;;4983667;28;20733;-74
2024/02/11 02:03:50;;;;;;;48.42;23.88;;;11.10;99.90;;;;;;4983594;28;20109;-75
2024/02/11 02:06:16;;;;;;;44.80;22.42;;;11.00;99.90;;;;;;4983888;28;20032;-74
2024/02/11 02:08:43;;;;;;;42.53;22.42;;;11.00;99.90;;;;;;4984141;28;20057;-74
2024/02/11 02:11:10;;;;;;;48.80;24.05;;;11.00;99.90;;;;;;4984182;28;20026;-74
2024/02/11 02:13:37;;;;;;;45.15;22.55;;;10.90;99.90;;;;;;4985025;28;20034;-74
2024/02/11 02:16:03;;;;;;;42.80;21.35;;;10.90;99.90;;;;;;4983828;28;20053;-75
2024/02/11 02:18:34;;;;;;;47.40;22.80;;;10.90;99.90;;;;;;4984434;28;20375;-74
2024/02/11 02:21:02;;;;;;;45.85;22.55;;;10.90;99.90;;;;;;4978035;28;20054;-74
2024/02/11 02:23:29;;;;;;;45.30;23.15;;;10.70;99.90;;;;;;4976837;28;20760;-75
2024/02/11 02:26:00;;;;;;;46.47;22.27;;;10.90;99.90;;;;;;4982638;28;20046;-74
2024/02/11 02:28:26;;;;;;;47.30;22.00;;;10.90;99.90;;;;;;4981819;28;20799;-75
2024/02/11 02:30:51;;;;;;;53.45;22.58;;;10.80;99.90;;;;;;4981979;28;20036;-75
2024/02/11 02:33:17;;;;;;;45.65;22.20;;;10.80;99.90;;;;;;4982359;28;20113;-74
2024/02/11 02:35:43;;;;;;;50.42;21.80;;;10.80;99.90;;;;;;4982489;28;20033;-74
2024/02/11 02:38:09;;;;;;;47.97;22.45;;;10.90;99.90;;;;;;4982785;28;20074;-74
2024/02/11 02:40:35;;;;;;;47.47;23.02;;;10.90;99.90;;;;;;4983115;28;20045;-74
2024/02/11 02:43:07;;;;;;;48.80;23.33;;;10.90;99.90;;;;;;4983705;28;20042;-75
2024/02/11 02:45:33;;;;;;;47.15;22.40;;;10.90;99.90;;;;;;4977721;28;20169;-74
2024/02/11 02:47:58;;;;;;;44.25;21.17;;;10.90;99.90;;;;;;4983977;28;20109;-74
2024/02/11 02:50:24;;;;;;;44.25;21.42;;;11.00;99.90;;;;;;4983349;28;20069;-74
2024/02/11 02:52:50;;;;;;;45.83;22.35;;;10.80;99.90;;;;;;4982941;28;20042;-74
2024/02/11 02:55:17;;;;;;;47.17;22.40;;;10.90;99.90;;;;;;4984132;28;20080;-74
2024/02/11 02:57:43;;;;;;;51.10;22.77;;;11.00;99.90;;;;;;4983767;28;20041;-75
2024/02/11 03:00:10;;;;;;;47.67;21.35;;;11.00;99.90;;;;;;4983712;28;20030;-74
2024/02/11 03:02:36;;;;;;;42.30;20.40;;;11.00;99.90;;;;;;4983304;28;20027;-74
2024/02/11 03:05:03;;;;;;;47.95;21.25;;;11.00;99.90;;;;;;4983627;28;20053;-74
2024/02/11 03:07:29;;;;;;;45.42;20.52;;;11.00;99.90;;;;;;4983935;28;20062;-74
2024/02/11 03:09:56;;;;;;;50.60;22.23;;;11.10;99.90;;;;;;4983747;28;20071;-74
2024/02/11 03:12:22;;;;;;;44.67;21.27;;;11.10;99.90;;;;;;4983430;28;20038;-74
2024/02/11 03:14:49;;;;;;;46.75;22.48;;;11.00;99.90;;;;;;4983393;28;20030;-74
2024/02/11 03:17:15;;;;;;;46.25;20.77;;;11.10;99.90;;;;;;4982313;28;20406;-74
2024/02/11 03:19:43;;;;;;;46.30;21.42;;;11.10;99.90;;;;;;4978776;28;20030;-74
2024/02/11 03:22:13;;;;;;;46.70;20.55;;;11.10;99.90;;;;;;4982638;28;20034;-74
2024/02/11 03:24:40;;;;;;;53.17;23.48;;;11.10;99.90;;;;;;4981789;28;20026;-74
2024/02/11 03:27:06;;;;;;;49.60;22.27;;;11.10;99.90;;;;;;4983715;28;20030;-74
2024/02/11 03:29:33;;;;;;;49.30;20.73;;;11.00;99.90;;;;;;4982650;28;20379;-74
2024/02/11 03:31:59;;;;;;;51.33;21.52;;;11.10;99.90;;;;;;4982220;28;20096;-74
2024/02/11 03:34:25;;;;;;;48.72;21.90;;;11.00;99.90;;;;;;4982726;28;20038;-74
2024/02/11 03:36:52;;;;;;;51.35;21.67;;;11.00;99.90;;;;;;4983673;28;20034;-74
2024/02/11 03:39:19;;;;;;;50.53;22.60;;;11.00;99.90;;;;;;4983384;28;20776;-74
2024/02/11 03:41:45;;;;;;;48.15;21.83;;;11.00;99.90;;;;;;4982408;28;20054;-74
2024/02/11 03:44:12;;;;;;;47.97;20.38;;;11.10;99.90;;;;;;4983300;28;20896;-74
2024/02/11 03:46:38;;;;;;;47.75;21.90;;;11.10;99.90;;;;;;4982916;28;20030;-74
2024/02/11 03:49:04;;;;;;;50.72;22.23;;;11.10;99.90;;;;;;4983163;28;20082;-74
2024/02/11 03:51:31;;;;;;;49.83;22.77;;;11.10;99.90;;;;;;4982989;28;20041;-74
2024/02/11 03:54:00;;;;;;;51.80;23.33;;;11.10;99.90;;;;;;4983771;28;20041;-74
2024/02/11 03:56:28;;;;;;;45.88;21.77;;;11.00;99.90;;;;;;4982627;28;20038;-74
2024/02/11 03:58:58;;;;;;;49.13;22.63;;;11.00;99.90;;;;;;4983098;28;20039;-74
2024/02/11 04:01:24;;;;;;;48.55;21.75;;;11.10;99.90;;;;;;4982894;28;20042;-74
2024/02/11 04:03:49;;;;;;;53.28;23.85;;;11.10;99.90;;;;;;4985075;28;20100;-74
2024/02/11 04:06:20;;;;;;;53.47;22.90;;;11.00;99.90;;;;;;4985291;28;20031;-74
2024/02/11 04:08:49;;;;;;;43.90;21.63;;;11.10;99.90;;;;;;4985968;28;20038;-74
2024/02/11 04:11:17;;;;;;;51.83;23.25;;;11.00;99.90;;;;;;4985364;28;20077;-74
2024/02/11 04:13:43;;;;;;;48.70;22.30;;;11.00;99.90;;;;;;4979764;28;20030;-74
2024/02/11 04:16:15;;;;;;;51.40;23.15;;;10.90;99.90;;;;;;4986471;28;20041;-74
2024/02/11 04:18:47;;;;;;;51.10;23.25;;;10.90;99.90;;;;;;4985044;28;20037;-74
2024/02/11 04:21:15;;;;;;;51.13;22.15;;;10.80;99.90;;;;;;4986126;28;20454;-74
2024/02/11 04:23:43;;;;;;;51.53;23.23;;;10.80;99.90;;;;;;4985538;28;20038;-74
2024/02/11 04:26:10;;;;;;;49.85;21.58;;;10.80;99.90;;;;;;4986208;28;20029;-74
2024/02/11 04:28:36;;;;;;;57.63;23.38;;;10.80;99.90;;;;;;4986082;28;20890;-74
2024/02/11 04:31:09;;;;;;;48.65;21.45;;;10.80;99.90;;;;;;4982359;28;20031;-74
2024/02/11 04:33:39;;;;;;;50.17;22.40;;;10.70;99.90;;;;;;4982087;28;20022;-74
2024/02/11 04:36:09;;;;;;;44.95;21.17;;;10.80;99.90;;;;;;4977622;28;20030;-74
2024/02/11 04:38:35;;;;;;;53.65;21.48;;;10.90;99.90;;;;;;4983521;28;20105;-75
2024/02/11 04:41:01;;;;;;;53.85;22.08;;;11.00;99.90;;;;;;4982804;28;20147;-74
2024/02/11 04:43:27;;;;;;;53.08;20.95;;;10.90;99.90;;;;;;4984841;28;20449;-74
2024/02/11 04:45:53;;;;;;;46.85;20.92;;;10.90;99.90;;;;;;4984322;28;20041;-74
2024/02/11 04:48:21;;;;;;;59.10;23.00;;;10.90;99.90;;;;;;4979975;28;20027;-74
2024/02/11 04:50:48;;;;;;;51.40;22.13;;;10.80;99.90;;;;;;4978325;28;20034;-75
2024/02/11 04:53:18;;;;;;;55.83;23.30;;;10.70;99.90;;;;;;4985046;28;20038;-74
2024/02/11 04:55:46;;;;;;;54.40;23.20;;;10.60;99.90;;;;;;4978637;28;20379;-74
2024/02/11 04:58:16;;;;;;;48.63;21.55;;;10.60;99.90;;;;;;4985388;28;20027;-74
2024/02/11 05:00:44;;;;;;;51.88;21.55;;;10.70;99.90;;;;;;4983639;28;20037;-74
2024/02/11 05:03:11;;;;;;;50.63;22.42;;;10.60;99.90;;;;;;4985695;28;20022;-74
2024/02/11 05:05:41;;;;;;;54.00;22.85;;;10.50;99.90;;;;;;4985414;28;20497;-74
2024/02/11 05:08:10;;;;;;;47.20;21.00;;;10.60;99.90;;;;;;4980444;28;20130;-74
2024/02/11 05:10:39;;;;;;;53.10;22.63;;;10.50;99.90;;;;;;4985824;28;20034;-74
2024/02/11 05:13:06;;;;;;;59.67;23.48;;;10.40;99.90;;;;;;4985203;28;20034;-74
2024/02/11 05:15:37;;;;;;;51.58;21.63;;;10.50;99.90;;;;;;4983605;28;20038;-74
2024/02/11 05:18:04;;;;;;;56.17;22.35;;;10.60;99.90;;;;;;4978068;28;20045;-74
2024/02/11 05:20:31;;;;;;;50.83;22.08;;;10.50;99.90;;;;;;4985138;28;20030;-74
2024/02/11 05:22:58;;;;;;;52.95;22.05;;;10.60;99.90;;;;;;4984674;28;20058;-74
2024/02/11 05:25:26;;;;;;;46.72;21.02;;;10.60;99.90;;;;;;4984863;28;20026;-74
2024/02/11 05:28:02;;;;;;;51.40;21.38;;;10.60;99.90;;;;;;4983185;28;20038;-74
2024/02/11 05:30:33;;;;;;;54.55;22.58;;;10.60;99.90;;;;;;4983446;28;20065;-74
2024/02/11 05:33:00;;;;;;;55.95;22.23;;;10.60;99.90;;;;;;4983278;28;20085;-75
2024/02/11 05:35:27;;;;;;;56.78;23.63;;;10.60;99.90;;;;;;4985340;28;20030;-74
2024/02/11 05:38:01;;;;;;;49.53;21.52;;;10.60;99.90;;;;;;4985318;28;20038;-75
2024/02/11 05:40:32;;;;;;;51.83;21.77;;;10.60;99.90;;;;;;4983470;28;20034;-74
2024/02/11 05:42:59;;;;;;;47.42;20.80;;;10.50;99.90;;;;;;4984399;28;20033;-75
2024/02/11 05:45:26;;;;;;;51.38;20.60;;;10.40;99.90;;;;;;4985049;28;20101;-75
2024/02/11 05:47:53;;;;;;;57.20;21.75;;;10.40;99.90;;;;;;4983565;28;20585;-74
2024/02/11 05:50:20;;;;;;;59.20;22.92;;;10.50;99.90;;;;;;4985110;28;20770;-74
2024/02/11 05:52:46;;;;;;;53.03;21.88;;;10.50;99.90;;;;;;4984741;28;20074;-74
2024/02/11 05:55:16;;;;;;;51.25;22.13;;;10.50;99.90;;;;;;4984646;28;20036;-74
2024/02/11 05:57:43;;;;;;;51.20;21.25;;;10.40;99.90;;;;;;4978228;28;20046;-75
2024/02/11 06:00:14;;;;;;;55.22;21.48;;;10.40;99.90;;;;;;4982201;28;20560;-74
2024/02/11 06:02:53;;;;;;;50.30;20.85;;;10.30;99.90;;;;;;4983743;28;20023;-74
2024/02/11 06:05:20;;;;;;;61.97;22.42;;;10.30;99.90;;;;;;4983118;28;20110;-74
2024/02/11 06:07:54;;;;;;;54.95;22.50;;;10.10;99.90;;;;;;4994658;28;20146;-75
2024/02/11 06:10:25;;;;;;;48.20;20.08;;;10.10;99.90;;;;;;4982650;28;20367;-74
2024/02/11 06:12:51;;;;;;;57.65;22.27;;;10.00;99.90;;;;;;4982301;28;20595;-74
2024/02/11 06:15:21;;;;;;;50.90;21.27;;;10.00;99.90;;;;;;4983295;28;20121;-74
2024/02/11 06:17:49;;;;;;;55.58;21.38;;;10.10;99.90;;;;;;4978268;28;20438;-74
2024/02/11 06:20:18;;;;;;;52.90;22.65;;;10.10;99.90;;;;;;4983154;28;20038;-74
2024/02/11 06:22:46;;;;;;;56.70;22.70;;;10.10;99.90;;;;;;4981598;28;20437;-74
2024/02/11 06:25:13;;;;;;;57.00;21.95;;;10.10;99.90;;;;;;4982653;28;20363;-74
2024/02/11 06:27:40;;;;;;;52.33;21.27;;;10.00;99.90;;;;;;4982948;28;20056;-74
2024/02/11 06:30:08;;;;;;;53.70;21.02;;;10.10;99.90;;;;;;4983198;28;20101;-74
2024/02/11 06:32:38;;;;;;;57.75;22.65;;;10.20;99.90;;;;;;4983813;28;20038;-74
2024/02/11 06:35:06;;;;;;;57.55;21.38;;;10.10;99.90;;;;;;4976338;28;20035;-74
2024/02/11 06:37:32;;;;;;;46.35;19.48;;;10.20;99.90;;;;;;4982193;28;20035;-74
2024/02/11 06:39:58;;;;;;;50.40;20.98;;;10.20;99.90;;;;;;4985454;28;20022;-74
2024/02/11 06:42:26;;;;;;;52.90;21.95;;;10.30;99.90;;;;;;4978666;28;20490;-74
2024/02/11 06:44:53;;;;;;;49.25;19.92;;;10.30;99.90;;;;;;4983701;28;20037;-74
2024/02/11 06:47:19;;;;;;;48.80;19.98;;;10.30;99.90;;;;;;4983688;28;20065;-74
2024/02/11 06:49:45;;;;;;;45.70;20.80;;;10.40;99.90;;;;;;4983718;28;20026;-74
2024/02/11 06:52:11;;;;;;;51.47;20.10;;;10.40;99.90;;;;;;4983182;28;20030;-74
2024/02/11 06:54:38;;;;;;;49.03;20.27;;;10.40;99.90;;;;;;4983370;28;20033;-74
2024/02/11 06:57:08;;;;;;;40.28;19.27;;;10.30;99.90;;;;;;4982272;28;20026;-74
2024/02/11 06:59:34;;;;;;;48.15;19.60;;;10.30;99.90;;;;;;4982207;28;20027;-74
2024/02/11 07:02:00;;;;;;;46.45;20.02;;;10.30;99.90;;;;;;4983188;28;20089;-74
2024/02/11 07:04:27;;;;;;;43.63;18.98;;;10.30;99.90;;;;;;4983385;28;20022;-74
2024/02/11 07:06:57;;;;;;;47.10;19.60;;;10.40;99.90;;;;;;4983710;28;20061;-74
2024/02/11 07:09:22;;;;;;;53.83;22.00;;;10.30;99.90;;;;;;4979410;28;20036;-74
2024/02/11 07:11:49;;;;;;;43.70;19.95;;;10.30;99.90;;;;;;4983218;28;20038;-74
2024/02/11 07:14:15;;;;;;;45.00;20.45;;;10.30;99.90;;;;;;4983880;28;20380;-75
2024/02/11 07:16:45;;;;;;;56.80;21.42;;;10.30;99.90;;;;;;4983443;28;20524;-74
2024/02/11 07:19:12;;;;;;;55.85;21.17;;;10.40;99.90;;;;;;4983586;28;20490;-74
2024/02/11 07:21:40;;;;;;;50.05;19.83;;;10.40;99.90;;;;;;4982714;28;20071;-74
2024/02/11 07:24:06;;;;;;;56.80;21.67;;;10.50;99.90;;;;;;4983429;28;20030;-74
2024/02/11 07:26:33;;;;;;;51.05;20.40;;;10.50;99.90;;;;;;4983144;28;20062;-74
2024/02/11 07:29:03;;;;;;;52.38;21.15;;;10.50;99.90;;;;;;4982873;28;20045;-74
2024/02/11 07:31:29;;;;;;;49.65;20.85;;;10.60;99.90;;;;;;4981611;28;20061;-75
2024/02/11 07:33:55;;;;;;;52.30;20.70;;;10.50;99.90;;;;;;4983305;28;20069;-74
2024/02/11 07:36:24;;;;;;;55.55;22.63;;;10.40;99.90;;;;;;4983543;28;20494;-74
2024/02/11 07:38:51;;;;;;;53.40;21.85;;;10.40;99.90;;;;;;4984913;28;20430;-74
2024/02/11 07:41:21;;;;;;;54.13;22.48;;;10.30;99.90;;;;;;4985176;28;20113;-74
2024/02/11 07:43:47;;;;;;;50.40;20.70;;;10.30;99.90;;;;;;4966354;28;20026;-76
2024/02/11 07:46:13;;;;;;;52.75;21.67;;;10.40;99.90;;;;;;4982235;28;20037;-75
2024/02/11 07:48:45;;;;;;;58.53;21.75;;;10.60;99.90;;;;;;4984587;28;20026;-75
2024/02/11 07:51:14;;;;;;;53.78;22.23;;;10.60;99.90;;;;;;4984708;28;20118;-75
2024/02/11 07:53:40;;;;;;;50.00;20.70;;;10.60;99.90;;;;;;4986122;28;20049;-75
2024/02/11 07:56:14;;;;;;;55.13;21.27;;;10.50;99.90;;;;;;4987090;28;20019;-70
2024/02/11 07:58:43;;;;;;;45.95;20.30;;;10.50;99.90;;;;;;4985689;28;20553;-71
2024/02/11 08:01:09;;;;;;;54.30;19.92;;;10.60;99.90;;;;;;4981889;28;20026;-71
2024/02/11 08:03:35;;;;;;;58.15;21.40;;;10.70;99.90;;;;;;4987006;28;20034;-70
2024/02/11 08:06:01;;;;;;;58.35;20.83;;;10.70;99.90;;;;;;4986595;28;20037;-70
2024/02/11 08:08:27;;;;;;;57.92;23.05;;;10.70;99.90;;;;;;4986686;28;20406;-71
2024/02/11 08:10:53;;;;;;;50.35;20.60;;;10.70;99.90;;;;;;4986595;28;20071;-71
2024/02/11 08:13:19;;;;;;;48.10;21.08;;;10.70;99.90;;;;;;4981848;28;20030;-71
2024/02/11 08:15:48;;;;;;;50.58;19.50;;;10.70;99.90;;;;;;4986859;28;20037;-71
2024/02/11 08:18:14;;;;;;;55.03;20.75;;;10.70;99.90;;;;;;4986858;28;20041;-72
2024/02/11 08:20:40;;;;;;;51.45;20.90;;;10.70;99.90;;;;;;4987139;28;20030;-70
2024/02/11 08:23:06;;;;;;;52.70;20.65;;;10.60;99.90;;;;;;4987529;28;20050;-72
2024/02/11 08:25:32;;;;;;;53.03;20.13;;;10.80;99.90;;;;;;4985338;28;20697;-71
2024/02/11 08:27:58;;;;;;;53.40;20.30;;;10.80;99.90;;;;;;4986613;28;20031;-72
2024/02/11 08:30:24;;;;;;;52.08;19.73;;;10.90;99.90;;;;;;4986941;28;20692;-70
2024/02/11 08:32:50;;;;;;;55.63;19.98;;;10.80;99.90;;;;;;4982392;28;20034;-71
2024/02/11 08:35:18;;;;;;;48.05;19.95;;;10.80;99.90;;;;;;4986730;28;20038;-72
2024/02/11 08:37:44;;;;;;;49.50;20.40;;;10.80;99.90;;;;;;4986420;28;20034;-72
2024/02/11 08:40:13;;;;;;;56.95;20.63;;;10.70;99.90;;;;;;4981540;28;21333;-72
2024/02/11 08:42:40;;;;;;;50.33;19.20;;;10.80;99.90;;;;;;4986019;28;20041;-72
2024/02/11 08:45:07;;;;;;;51.22;20.13;;;10.80;99.90;;;;;;4986227;28;20031;-73
2024/02/11 08:47:34;;;;;;;50.78;21.60;;;10.90;99.90;;;;;;4986639;28;20026;-73
2024/02/11 08:50:00;;;;;;;48.97;20.58;;;10.90;99.90;;;;;;4984875;28;20034;-72
2024/02/11 08:52:26;;;;;;;51.78;19.45;;;10.80;99.90;;;;;;4986366;28;20137;-72
2024/02/11 08:54:52;;;;;;;52.40;19.98;;;10.80;99.90;;;;;;4985773;28;20113;-65
2024/02/11 08:57:22;;;;;;;51.13;19.10;;;10.80;99.90;;;;;;4985009;28;20850;-72
2024/02/11 08:59:48;;;;;;;53.30;21.33;;;10.80;99.90;;;;;;4973960;28;20049;-72
2024/02/11 09:02:17;;;;;;;49.33;19.77;;;10.80;99.90;;;;;;4985018;28;20101;-72
2024/02/11 09:04:43;;;;;;;56.95;21.58;;;10.80;99.90;;;;;;4982211;28;20413;-72
2024/02/11 09:07:10;;;;;;;55.50;20.00;;;10.90;99.90;;;;;;4985455;28;20038;-71
2024/02/11 09:09:36;;;;;;;60.83;21.08;;;10.90;99.90;;;;;;4980941;28;20145;-72
2024/02/11 09:12:03;;;;;;;49.88;19.40;;;10.90;99.90;;;;;;4983454;28;20056;-73
2024/02/11 09:14:31;;;;;;;52.80;19.20;;;10.90;99.90;;;;;;4985082;28;20034;-73
2024/02/11 09:16:58;;;;;;;51.92;19.90;;;10.90;99.90;;;;;;4985580;28;20068;-72
2024/02/11 09:19:27;;;;;;;47.90;19.77;;;10.90;99.90;;;;;;4980789;28;20034;-73
2024/02/11 09:21:54;;;;;;;51.30;19.90;;;10.90;99.90;;;;;;4984523;28;20029;-73
2024/02/11 09:24:20;;;;;;;54.33;19.75;;;10.90;99.90;;;;;;4983000;28;20121;-72
2024/02/11 09:26:51;;;;;;;48.75;19.83;;;10.90;99.90;;;;;;4983070;28;21182;-73
2024/02/11 09:29:17;;;;;;;50.63;20.67;;;10.90;99.90;;;;;;4981872;28;20049;-73
2024/02/11 09:31:44;;;;;;;44.47;18.30;;;10.90;99.90;;;;;;4981275;28;20078;-68
2024/02/11 09:34:10;;;;;;;51.90;18.33;;;11.00;99.90;;;;;;4984041;28;20053;-68
2024/02/11 09:36:38;;;;;;;44.50;19.88;;;11.00;99.90;;;;;;4983748;28;20034;-68
2024/02/11 09:39:05;;;;;;;51.80;18.50;;;11.00;99.90;;;;;;4981448;28;20034;-67
2024/02/11 09:41:32;;;;;;;48.65;19.02;;;11.00;99.90;;;;;;4984020;28;20093;-68
2024/02/11 09:44:04;;;;;;;60.83;20.75;;;11.20;99.90;;;;;;4984507;28;20045;-68
2024/02/11 09:46:37;;;;;;;46.97;19.98;;;11.20;99.90;;;;;;4984598;28;20034;-68
2024/02/11 09:49:30;;;;;;;54.08;19.80;;;11.30;99.90;;;;;;4980548;28;20022;-68
2024/02/11 09:52:00;;;;;;;44.63;18.90;;;11.40;99.90;;;;;;4980440;28;20142;-68
2024/02/11 09:54:29;;;;;;;49.40;18.95;;;11.40;99.90;;;;;;4982876;28;20117;-68
2024/02/11 09:56:55;;;;;;;46.40;20.50;;;11.50;99.90;;;;;;4981933;28;20038;-68
2024/02/11 09:59:26;;;;;;;51.97;19.05;;;11.40;99.90;;;;;;4983470;28;20053;-72
2024/02/11 10:01:54;;;;;;;46.05;19.85;;;11.50;99.90;;;;;;4981791;28;20104;-69
2024/02/11 10:04:27;;;;;;;47.25;19.80;;;11.50;99.90;;;;;;4983300;28;20474;-68
2024/02/11 10:06:53;;;;;;;50.75;19.33;;;11.60;99.90;;;;;;4982390;28;20125;-67
2024/02/11 10:09:22;;;;;;;54.63;21.45;;;11.50;99.90;;;;;;4983618;28;20077;-68
2024/02/11 10:11:49;;;;;;;53.65;20.45;;;11.50;99.90;;;;;;4982095;28;20414;-67
2024/02/11 10:14:15;;;;;;;49.45;18.90;;;11.60;99.90;;;;;;4981919;28;20089;-67
2024/02/11 10:16:41;;;;;;;49.67;19.42;;;11.60;99.90;;;;;;4983181;28;20038;-67
2024/02/11 10:19:09;;;;;;;52.17;19.05;;;11.50;99.90;;;;;;4982605;28;20026;-66
2024/02/11 10:21:35;;;;;;;54.33;20.08;;;11.50;99.90;;;;;;4983248;28;20375;-67
2024/02/11 10:24:03;;;;;;;56.30;21.67;;;11.50;99.90;;;;;;4983333;28;20050;-67
2024/02/11 10:26:32;;;;;;;47.22;19.55;;;11.60;99.90;;;;;;4982977;28;20153;-67
2024/02/11 10:29:02;;;;;;;51.55;19.60;;;11.50;99.90;;;;;;4983834;28;20081;-67
2024/02/11 10:31:29;;;;;;;54.95;21.17;;;11.60;99.90;;;;;;4975321;28;20022;-66
2024/02/11 10:33:58;;;;;;;48.00;19.52;;;11.60;99.90;;;;;;4983560;28;20034;-66
2024/02/11 10:36:25;;;;;;;54.05;20.60;;;11.70;99.90;;;;;;4984260;28;20109;-67
2024/02/11 10:38:54;;;;;;;52.35;18.83;;;11.60;99.90;;;;;;4983926;28;20411;-67
2024/02/11 10:41:22;;;;;;;54.55;20.50;;;11.60;99.90;;;;;;4980618;28;20806;-66
2024/02/11 10:43:50;;;;;;;53.65;20.55;;;11.60;99.90;;;;;;4982958;28;20030;-66
2024/02/11 10:46:16;;;;;;;58.88;21.02;;;11.70;99.90;;;;;;4983948;28;20030;-66
2024/02/11 10:48:42;;;;;;;56.47;19.63;;;11.60;99.90;;;;;;4983449;28;20030;-68
2024/02/11 10:51:23;;;;;;;55.50;21.05;;;11.60;99.90;;;;;;4983477;28;20061;-65
2024/02/11 10:54:03;;;;;;;51.40;19.08;;;11.50;99.90;;;;;;4983287;28;20030;-68
2024/02/11 10:56:33;;;;;;;52.05;19.45;;;11.60;99.90;;;;;;4983159;28;20520;-68
2024/02/11 10:59:10;;;;;;;53.97;20.88;;;11.60;99.90;;;;;;4983962;28;20093;-68
2024/02/11 11:01:39;;;;;;;51.13;19.90;;;11.60;99.90;;;;;;4982609;28;20308;-68
2024/02/11 11:04:13;;;;;;;51.03;19.30;;;11.60;99.90;;;;;;4983653;28;20030;-68
2024/02/11 11:06:41;;;;;;;45.65;18.75;;;11.60;99.90;;;;;;4977927;28;20045;-68
2024/02/11 11:09:07;;;;;;;52.97;18.67;;;11.60;99.90;;;;;;4984206;28;20066;-68
2024/02/11 11:11:33;;;;;;;46.15;19.15;;;11.50;99.90;;;;;;4983132;28;20042;-69
2024/02/11 11:14:07;;;;;;;44.65;19.27;;;11.60;99.90;;;;;;4982602;28;20046;-68
2024/02/11 11:16:38;;;;;;;47.33;18.20;;;11.60;99.90;;;;;;4983495;28;20037;-68
2024/02/11 11:19:10;;;;;;;46.15;17.83;;;11.70;99.90;;;;;;4983395;28;20026;-68
2024/02/11 11:21:36;;;;;;;48.03;17.67;;;11.70;99.90;;;;;;4981962;28;20039;-68
2024/02/11 11:24:03;;;;;;;46.78;18.75;;;11.80;99.90;;;;;;4977847;28;20018;-67
2024/02/11 11:26:29;;;;;;;51.45;18.88;;;11.70;99.90;;;;;;4982533;28;20034;-68
2024/02/11 11:29:05;;;;;;;40.45;17.65;;;11.80;99.90;;;;;;4982159;28;20046;-71
2024/02/11 11:31:34;;;;;;;47.50;19.63;;;11.90;99.90;;;;;;4985504;28;20096;-73
2024/02/11 11:34:01;;;;;;;46.72;18.00;;;11.90;99.90;;;;;;4984854;28;20121;-71
2024/02/11 11:36:28;;;;;;;39.75;16.58;;;11.90;99.90;;;;;;4985985;28;20090;-73
2024/02/11 11:39:11;;;;;;;37.38;16.35;;;11.90;99.90;;;;;;4982547;28;20077;-74
2024/02/11 11:41:37;;;;;;;36.55;15.18;;;11.90;99.90;;;;;;4983933;28;20081;-72
2024/02/11 11:44:05;;;;;;;34.15;15.70;;;11.90;99.90;;;;;;4985115;28;20105;-76
2024/02/11 11:46:32;;;;;;;41.22;17.77;;;12.00;99.90;;;;;;4992085;28;20084;-76
2024/02/11 11:48:58;;;;;;;37.35;16.40;;;12.00;99.90;;;;;;4990409;28;20061;-75
2024/02/11 11:51:26;;;;;;;40.15;17.60;;;12.00;99.90;;;;;;4992932;28;20046;-75
2024/02/11 11:53:52;;;;;;;40.47;15.27;;;12.00;99.90;;;;;;4989417;28;20114;-71
2024/02/11 11:56:20;;;;;;;41.08;18.10;;;12.00;99.90;;;;;;4989407;28;20054;-76
2024/02/11 11:58:52;;;;;;;36.58;16.08;;;12.00;99.90;;;;;;4989395;28;20031;-73
2024/02/11 12:01:22;;;;;;;42.22;16.88;;;12.00;99.90;;;;;;4989245;28;20038;-75
2024/02/11 12:03:48;;;;;;;47.85;17.00;;;12.00;99.90;;;;;;4982578;28;20030;-76
2024/02/11 12:06:14;;;;;;;43.10;17.15;;;12.00;99.90;;;;;;4990875;28;20038;-75
2024/02/11 12:08:40;;;;;;;40.83;17.95;;;11.90;99.90;;;;;;4990577;28;20424;-75
2024/02/11 12:11:07;;;;;;;39.88;17.75;;;11.90;99.90;;;;;;4989682;28;20042;-75
2024/02/11 12:13:35;;;;;;;38.70;15.68;;;11.80;99.90;;;;;;4986191;28;20277;-71
2024/02/11 12:16:03;;;;;;;34.33;15.57;;;11.80;99.90;;;;;;4989596;28;20767;-71
2024/02/11 12:18:30;;;;;;;38.08;16.55;;;11.70;99.90;;;;;;4990286;28;20557;-75
2024/02/11 12:20:57;;;;;;;39.95;16.13;;;11.60;99.90;;;;;;4989226;28;20477;-70
2024/02/11 12:23:24;;;;;;;40.38;16.48;;;11.60;99.90;;;;;;4984976;28;20026;-75
2024/02/11 12:25:54;;;;;;;37.47;16.67;;;11.60;99.90;;;;;;4991127;28;20041;-76
2024/02/11 12:28:27;;;;;;;42.83;15.73;;;11.60;99.90;;;;;;4985298;28;20145;-71
2024/02/11 12:31:14;;;;;;;45.95;17.02;;;11.50;99.90;;;;;;4991920;28;20114;-72